sensor_id;sensor_type;location;lat;lon;timestamp;P1;durP1;ratioP1;P2;durP2;ratioP2
75218;SDS011;63801;49.414;19.474;2022-10-16T00:00:37;20.60;;;10.23;;
75218;SDS011;63801;49.414;19.474;2022-10-16T00:02:38;17.50;;;9.65;;
75218;SDS011;63801;49.414;19.474;2022-10-16T00:04:38;16.85;;;9.05;;
75218;SDS011;63801;49.414;19.474;2022-10-16T00:06:39;18.67;;;10.35;;
75218;SDS011;63801;49.414;19.474;2022-10-16T00:08:40;18.67;;;10.13;;
75218;SDS011;63801;49.414;19.474;2022-10-16T00:10:40;19.55;;;9.88;;
75218;SDS011;63801;49.414;19.474;2022-10-16T00:12:41;17.67;;;10.13;;
75218;SDS011;63801;49.414;19.474;2022-10-16T00:14:41;16.95;;;10.57;;
75218;SDS011;63801;49.414;19.474;2022-10-16T00:16:43;16.60;;;10.68;;
75218;SDS011;63801;49.414;19.474;2022-10-16T00:18:44;20.98;;;10.93;;
75218;SDS011;63801;49.414;19.474;2022-10-16T00:20:44;21.15;;;11.55;;
75218;SDS011;63801;49.414;19.474;2022-10-16T00:22:44;19.70;;;10.95;;
75218;SDS011;63801;49.414;19.474;2022-10-16T00:24:44;17.23;;;10.77;;
75218;SDS011;63801;49.414;19.474;2022-10-16T00:26:45;17.58;;;11.15;;
75218;SDS011;63801;49.414;19.474;2022-10-16T00:28:46;19.77;;;10.80;;
75218;SDS011;63801;49.414;19.474;2022-10-16T00:30:47;19.75;;;10.20;;
75218;SDS011;63801;49.414;19.474;2022-10-16T00:32:47;17.35;;;10.82;;
75218;SDS011;63801;49.414;19.474;2022-10-16T00:34:48;18.42;;;10.15;;
75218;SDS011;63801;49.414;19.474;2022-10-16T00:36:48;20.55;;;11.02;;
75218;SDS011;63801;49.414;19.474;2022-10-16T00:38:52;18.70;;;9.65;;
75218;SDS011;63801;49.414;19.474;2022-10-16T00:40:55;18.17;;;10.45;;
75218;SDS011;63801;49.414;19.474;2022-10-16T00:42:55;20.70;;;10.85;;
75218;SDS011;63801;49.414;19.474;2022-10-16T00:44:56;15.73;;;11.25;;
75218;SDS011;63801;49.414;19.474;2022-10-16T00:46:57;14.90;;;10.25;;
75218;SDS011;63801;49.414;19.474;2022-10-16T00:49:02;15.63;;;10.27;;
75218;SDS011;63801;49.414;19.474;2022-10-16T00:51:05;17.83;;;10.50;;
75218;SDS011;63801;49.414;19.474;2022-10-16T00:53:07;16.92;;;10.98;;
75218;SDS011;63801;49.414;19.474;2022-10-16T00:55:07;18.73;;;9.38;;
75218;SDS011;63801;49.414;19.474;2022-10-16T00:57:09;17.02;;;10.25;;
75218;SDS011;63801;49.414;19.474;2022-10-16T00:59:20;17.27;;;10.13;;
75218;SDS011;63801;49.414;19.474;2022-10-16T01:01:24;15.40;;;9.65;;
75218;SDS011;63801;49.414;19.474;2022-10-16T01:03:27;19.80;;;10.52;;
75218;SDS011;63801;49.414;19.474;2022-10-16T01:05:40;20.75;;;11.35;;
75218;SDS011;63801;49.414;19.474;2022-10-16T01:07:56;17.88;;;9.93;;
75218;SDS011;63801;49.414;19.474;2022-10-16T01:14:54;18.08;;;10.00;;
75218;SDS011;63801;49.414;19.474;2022-10-16T01:17:01;18.60;;;10.50;;
75218;SDS011;63801;49.414;19.474;2022-10-16T01:21:29;16.65;;;10.25;;
75218;SDS011;63801;49.414;19.474;2022-10-16T01:23:51;16.70;;;10.63;;
75218;SDS011;63801;49.414;19.474;2022-10-16T01:30:55;19.10;;;10.50;;
75218;SDS011;63801;49.414;19.474;2022-10-16T01:33:01;19.10;;;10.43;;
75218;SDS011;63801;49.414;19.474;2022-10-16T01:37:15;18.60;;;10.10;;
75218;SDS011;63801;49.414;19.474;2022-10-16T01:39:21;23.42;;;11.27;;
75218;SDS011;63801;49.414;19.474;2022-10-16T01:41:27;17.33;;;10.45;;
75218;SDS011;63801;49.414;19.474;2022-10-16T01:43:33;16.50;;;10.38;;
75218;SDS011;63801;49.414;19.474;2022-10-16T01:45:38;17.15;;;10.18;;
75218;SDS011;63801;49.414;19.474;2022-10-16T01:49:43;15.98;;;10.23;;
75218;SDS011;63801;49.414;19.474;2022-10-16T01:51:46;20.23;;;10.75;;
75218;SDS011;63801;49.414;19.474;2022-10-16T01:53:52;18.00;;;10.63;;
75218;SDS011;63801;49.414;19.474;2022-10-16T01:55:55;17.77;;;10.15;;
75218;SDS011;63801;49.414;19.474;2022-10-16T01:57:58;18.90;;;10.23;;
75218;SDS011;63801;49.414;19.474;2022-10-16T02:00:02;20.88;;;11.18;;
75218;SDS011;63801;49.414;19.474;2022-10-16T02:02:07;20.27;;;11.95;;
75218;SDS011;63801;49.414;19.474;2022-10-16T02:04:19;18.02;;;10.23;;
75218;SDS011;63801;49.414;19.474;2022-10-16T02:06:24;16.15;;;10.52;;
75218;SDS011;63801;49.414;19.474;2022-10-16T02:08:26;17.27;;;10.70;;
75218;SDS011;63801;49.414;19.474;2022-10-16T02:10:28;16.15;;;10.25;;
75218;SDS011;63801;49.414;19.474;2022-10-16T02:12:31;19.80;;;10.90;;
75218;SDS011;63801;49.414;19.474;2022-10-16T02:14:37;16.30;;;10.68;;
75218;SDS011;63801;49.414;19.474;2022-10-16T02:16:39;16.25;;;10.43;;
75218;SDS011;63801;49.414;19.474;2022-10-16T02:18:42;17.30;;;11.10;;
75218;SDS011;63801;49.414;19.474;2022-10-16T02:23:12;20.23;;;11.05;;
75218;SDS011;63801;49.414;19.474;2022-10-16T02:25:40;16.10;;;10.23;;
75218;SDS011;63801;49.414;19.474;2022-10-16T02:29:59;18.05;;;10.23;;
75218;SDS011;63801;49.414;19.474;2022-10-16T02:32:07;17.65;;;10.60;;
75218;SDS011;63801;49.414;19.474;2022-10-16T02:36:12;19.17;;;10.80;;
75218;SDS011;63801;49.414;19.474;2022-10-16T02:38:14;20.70;;;10.32;;
75218;SDS011;63801;49.414;19.474;2022-10-16T02:40:15;17.33;;;10.00;;
75218;SDS011;63801;49.414;19.474;2022-10-16T02:42:17;19.90;;;11.43;;
75218;SDS011;63801;49.414;19.474;2022-10-16T02:44:17;14.77;;;9.85;;
75218;SDS011;63801;49.414;19.474;2022-10-16T02:46:18;16.42;;;9.85;;
75218;SDS011;63801;49.414;19.474;2022-10-16T02:48:18;16.85;;;10.27;;
75218;SDS011;63801;49.414;19.474;2022-10-16T02:50:19;20.35;;;10.80;;
75218;SDS011;63801;49.414;19.474;2022-10-16T02:52:19;15.07;;;9.98;;
75218;SDS011;63801;49.414;19.474;2022-10-16T02:54:19;18.42;;;10.63;;
75218;SDS011;63801;49.414;19.474;2022-10-16T02:56:20;18.13;;;10.55;;
75218;SDS011;63801;49.414;19.474;2022-10-16T02:58:20;16.60;;;9.55;;
75218;SDS011;63801;49.414;19.474;2022-10-16T03:00:21;15.45;;;9.52;;
75218;SDS011;63801;49.414;19.474;2022-10-16T03:02:22;18.65;;;11.13;;
75218;SDS011;63801;49.414;19.474;2022-10-16T03:04:22;18.08;;;10.52;;
75218;SDS011;63801;49.414;19.474;2022-10-16T03:06:23;21.33;;;10.88;;
75218;SDS011;63801;49.414;19.474;2022-10-16T03:08:23;18.70;;;10.07;;
75218;SDS011;63801;49.414;19.474;2022-10-16T03:10:25;17.40;;;10.07;;
75218;SDS011;63801;49.414;19.474;2022-10-16T03:12:26;21.77;;;10.40;;
75218;SDS011;63801;49.414;19.474;2022-10-16T03:14:26;16.33;;;10.20;;
75218;SDS011;63801;49.414;19.474;2022-10-16T03:16:27;17.55;;;10.23;;
75218;SDS011;63801;49.414;19.474;2022-10-16T03:18:27;16.65;;;10.23;;
75218;SDS011;63801;49.414;19.474;2022-10-16T03:20:27;16.58;;;10.45;;
75218;SDS011;63801;49.414;19.474;2022-10-16T03:22:28;20.85;;;10.00;;
75218;SDS011;63801;49.414;19.474;2022-10-16T03:24:28;16.70;;;9.75;;
75218;SDS011;63801;49.414;19.474;2022-10-16T03:26:29;15.52;;;9.68;;
75218;SDS011;63801;49.414;19.474;2022-10-16T03:28:29;19.08;;;10.63;;
75218;SDS011;63801;49.414;19.474;2022-10-16T03:30:29;21.30;;;10.77;;
75218;SDS011;63801;49.414;19.474;2022-10-16T03:32:29;18.40;;;9.65;;
75218;SDS011;63801;49.414;19.474;2022-10-16T03:34:30;17.85;;;10.50;;
75218;SDS011;63801;49.414;19.474;2022-10-16T03:36:30;16.38;;;9.98;;
75218;SDS011;63801;49.414;19.474;2022-10-16T03:38:31;17.30;;;10.80;;
75218;SDS011;63801;49.414;19.474;2022-10-16T03:40:31;15.73;;;10.05;;
75218;SDS011;63801;49.414;19.474;2022-10-16T03:42:32;18.90;;;9.95;;
75218;SDS011;63801;49.414;19.474;2022-10-16T03:44:32;17.10;;;10.57;;
75218;SDS011;63801;49.414;19.474;2022-10-16T03:46:32;20.42;;;10.23;;
75218;SDS011;63801;49.414;19.474;2022-10-16T03:48:33;17.27;;;10.50;;
75218;SDS011;63801;49.414;19.474;2022-10-16T03:50:33;19.00;;;11.00;;
75218;SDS011;63801;49.414;19.474;2022-10-16T03:52:33;16.83;;;11.05;;
75218;SDS011;63801;49.414;19.474;2022-10-16T03:54:34;16.33;;;10.15;;
75218;SDS011;63801;49.414;19.474;2022-10-16T03:56:34;18.20;;;10.55;;
75218;SDS011;63801;49.414;19.474;2022-10-16T03:58:34;17.25;;;10.77;;
75218;SDS011;63801;49.414;19.474;2022-10-16T04:00:34;19.95;;;10.65;;
75218;SDS011;63801;49.414;19.474;2022-10-16T04:02:35;22.95;;;11.15;;
75218;SDS011;63801;49.414;19.474;2022-10-16T04:04:35;18.50;;;11.40;;
75218;SDS011;63801;49.414;19.474;2022-10-16T04:06:35;17.10;;;10.75;;
75218;SDS011;63801;49.414;19.474;2022-10-16T04:08:36;25.55;;;12.13;;
75218;SDS011;63801;49.414;19.474;2022-10-16T04:10:36;16.35;;;10.50;;
75218;SDS011;63801;49.414;19.474;2022-10-16T04:12:36;19.77;;;10.70;;
75218;SDS011;63801;49.414;19.474;2022-10-16T04:14:37;19.65;;;11.20;;
75218;SDS011;63801;49.414;19.474;2022-10-16T04:16:37;20.00;;;10.63;;
75218;SDS011;63801;49.414;19.474;2022-10-16T04:18:37;17.92;;;11.43;;
75218;SDS011;63801;49.414;19.474;2022-10-16T04:20:38;19.48;;;10.98;;
75218;SDS011;63801;49.414;19.474;2022-10-16T04:22:38;15.93;;;10.70;;
75218;SDS011;63801;49.414;19.474;2022-10-16T04:24:38;22.02;;;11.20;;
75218;SDS011;63801;49.414;19.474;2022-10-16T04:26:39;21.45;;;11.48;;
75218;SDS011;63801;49.414;19.474;2022-10-16T04:28:39;22.92;;;12.00;;
75218;SDS011;63801;49.414;19.474;2022-10-16T04:30:40;20.75;;;11.35;;
75218;SDS011;63801;49.414;19.474;2022-10-16T04:32:40;19.52;;;10.75;;
75218;SDS011;63801;49.414;19.474;2022-10-16T04:34:40;17.67;;;10.55;;
75218;SDS011;63801;49.414;19.474;2022-10-16T04:36:41;20.38;;;10.82;;
75218;SDS011;63801;49.414;19.474;2022-10-16T04:38:41;19.67;;;11.50;;
75218;SDS011;63801;49.414;19.474;2022-10-16T04:40:42;19.42;;;11.20;;
75218;SDS011;63801;49.414;19.474;2022-10-16T04:42:42;19.40;;;10.77;;
75218;SDS011;63801;49.414;19.474;2022-10-16T04:44:43;19.35;;;11.98;;
75218;SDS011;63801;49.414;19.474;2022-10-16T04:46:43;21.45;;;11.15;;
75218;SDS011;63801;49.414;19.474;2022-10-16T04:48:44;21.35;;;11.35;;
75218;SDS011;63801;49.414;19.474;2022-10-16T04:50:45;18.40;;;11.43;;
75218;SDS011;63801;49.414;19.474;2022-10-16T04:52:45;18.10;;;11.55;;
75218;SDS011;63801;49.414;19.474;2022-10-16T04:54:45;22.15;;;11.88;;
75218;SDS011;63801;49.414;19.474;2022-10-16T04:56:46;20.23;;;11.85;;
75218;SDS011;63801;49.414;19.474;2022-10-16T04:58:50;21.83;;;11.93;;
75218;SDS011;63801;49.414;19.474;2022-10-16T05:00:51;20.13;;;12.15;;
75218;SDS011;63801;49.414;19.474;2022-10-16T05:02:51;24.17;;;13.38;;
75218;SDS011;63801;49.414;19.474;2022-10-16T05:04:51;20.20;;;11.98;;
75218;SDS011;63801;49.414;19.474;2022-10-16T05:06:52;18.50;;;11.93;;
75218;SDS011;63801;49.414;19.474;2022-10-16T05:08:52;21.60;;;12.18;;
75218;SDS011;63801;49.414;19.474;2022-10-16T05:10:52;20.05;;;11.30;;
75218;SDS011;63801;49.414;19.474;2022-10-16T05:12:52;20.48;;;11.48;;
75218;SDS011;63801;49.414;19.474;2022-10-16T05:14:53;20.67;;;12.02;;
75218;SDS011;63801;49.414;19.474;2022-10-16T05:16:59;20.00;;;11.82;;
75218;SDS011;63801;49.414;19.474;2022-10-16T05:18:59;21.35;;;11.80;;
75218;SDS011;63801;49.414;19.474;2022-10-16T05:21:00;17.95;;;10.88;;
75218;SDS011;63801;49.414;19.474;2022-10-16T05:23:00;20.92;;;12.15;;
75218;SDS011;63801;49.414;19.474;2022-10-16T05:25:00;19.05;;;11.23;;
75218;SDS011;63801;49.414;19.474;2022-10-16T05:27:01;20.13;;;11.45;;
75218;SDS011;63801;49.414;19.474;2022-10-16T05:29:01;18.05;;;11.23;;
75218;SDS011;63801;49.414;19.474;2022-10-16T05:31:08;19.02;;;12.02;;
75218;SDS011;63801;49.414;19.474;2022-10-16T05:33:09;18.85;;;11.10;;
75218;SDS011;63801;49.414;19.474;2022-10-16T05:35:09;16.27;;;10.82;;
75218;SDS011;63801;49.414;19.474;2022-10-16T05:37:09;19.05;;;11.27;;
75218;SDS011;63801;49.414;19.474;2022-10-16T05:39:11;18.15;;;10.68;;
75218;SDS011;63801;49.414;19.474;2022-10-16T05:41:13;18.85;;;10.75;;
75218;SDS011;63801;49.414;19.474;2022-10-16T05:43:13;20.55;;;9.95;;
75218;SDS011;63801;49.414;19.474;2022-10-16T05:45:14;22.27;;;11.25;;
75218;SDS011;63801;49.414;19.474;2022-10-16T05:47:14;17.98;;;10.52;;
75218;SDS011;63801;49.414;19.474;2022-10-16T05:49:15;18.10;;;10.75;;
75218;SDS011;63801;49.414;19.474;2022-10-16T05:51:15;24.25;;;11.50;;
75218;SDS011;63801;49.414;19.474;2022-10-16T05:53:15;23.65;;;10.82;;
75218;SDS011;63801;49.414;19.474;2022-10-16T05:55:15;19.35;;;10.60;;
75218;SDS011;63801;49.414;19.474;2022-10-16T05:57:16;18.33;;;10.60;;
75218;SDS011;63801;49.414;19.474;2022-10-16T05:59:16;19.90;;;10.10;;
75218;SDS011;63801;49.414;19.474;2022-10-16T06:01:17;16.30;;;9.55;;
75218;SDS011;63801;49.414;19.474;2022-10-16T06:03:19;14.73;;;8.85;;
75218;SDS011;63801;49.414;19.474;2022-10-16T06:05:19;14.15;;;9.35;;
75218;SDS011;63801;49.414;19.474;2022-10-16T06:07:20;20.85;;;10.73;;
75218;SDS011;63801;49.414;19.474;2022-10-16T06:09:20;18.67;;;9.70;;
75218;SDS011;63801;49.414;19.474;2022-10-16T06:11:22;24.90;;;12.55;;
75218;SDS011;63801;49.414;19.474;2022-10-16T06:15:23;34.13;;;19.27;;
75218;SDS011;63801;49.414;19.474;2022-10-16T06:17:24;27.85;;;15.88;;
75218;SDS011;63801;49.414;19.474;2022-10-16T06:19:24;23.77;;;13.13;;
75218;SDS011;63801;49.414;19.474;2022-10-16T06:21:25;23.80;;;14.85;;
75218;SDS011;63801;49.414;19.474;2022-10-16T06:23:28;25.85;;;16.73;;
75218;SDS011;63801;49.414;19.474;2022-10-16T06:25:28;24.73;;;13.90;;
75218;SDS011;63801;49.414;19.474;2022-10-16T06:27:28;20.95;;;11.55;;
75218;SDS011;63801;49.414;19.474;2022-10-16T06:29:29;24.38;;;11.18;;
75218;SDS011;63801;49.414;19.474;2022-10-16T06:31:29;21.85;;;11.35;;
75218;SDS011;63801;49.414;19.474;2022-10-16T06:33:33;20.00;;;9.82;;
75218;SDS011;63801;49.414;19.474;2022-10-16T06:35:33;15.55;;;8.95;;
75218;SDS011;63801;49.414;19.474;2022-10-16T06:37:34;25.42;;;11.00;;
75218;SDS011;63801;49.414;19.474;2022-10-16T06:39:34;19.15;;;9.60;;
75218;SDS011;63801;49.414;19.474;2022-10-16T06:41:34;17.30;;;9.40;;
75218;SDS011;63801;49.414;19.474;2022-10-16T06:43:35;18.90;;;9.50;;
75218;SDS011;63801;49.414;19.474;2022-10-16T06:45:35;12.05;;;8.05;;
75218;SDS011;63801;49.414;19.474;2022-10-16T06:47:35;13.98;;;7.78;;
75218;SDS011;63801;49.414;19.474;2022-10-16T06:49:36;20.33;;;8.85;;
75218;SDS011;63801;49.414;19.474;2022-10-16T06:51:36;15.23;;;8.00;;
75218;SDS011;63801;49.414;19.474;2022-10-16T06:53:41;15.18;;;8.45;;
75218;SDS011;63801;49.414;19.474;2022-10-16T06:55:44;15.25;;;7.97;;
75218;SDS011;63801;49.414;19.474;2022-10-16T06:57:46;13.20;;;7.43;;
75218;SDS011;63801;49.414;19.474;2022-10-16T06:59:47;15.30;;;8.38;;
75218;SDS011;63801;49.414;19.474;2022-10-16T07:01:47;18.75;;;10.20;;
75218;SDS011;63801;49.414;19.474;2022-10-16T07:03:48;26.50;;;10.73;;
75218;SDS011;63801;49.414;19.474;2022-10-16T07:05:49;17.63;;;9.15;;
75218;SDS011;63801;49.414;19.474;2022-10-16T07:07:49;17.63;;;8.80;;
75218;SDS011;63801;49.414;19.474;2022-10-16T07:09:49;26.40;;;9.93;;
75218;SDS011;63801;49.414;19.474;2022-10-16T07:11:50;22.10;;;8.63;;
75218;SDS011;63801;49.414;19.474;2022-10-16T07:13:50;17.38;;;8.55;;
75218;SDS011;63801;49.414;19.474;2022-10-16T07:15:51;18.23;;;9.07;;
75218;SDS011;63801;49.414;19.474;2022-10-16T07:17:52;15.68;;;8.90;;
75218;SDS011;63801;49.414;19.474;2022-10-16T07:19:52;17.88;;;9.02;;
75218;SDS011;63801;49.414;19.474;2022-10-16T07:21:53;14.90;;;8.85;;
75218;SDS011;63801;49.414;19.474;2022-10-16T07:23:54;16.27;;;8.27;;
75218;SDS011;63801;49.414;19.474;2022-10-16T07:25:55;15.25;;;8.63;;
75218;SDS011;63801;49.414;19.474;2022-10-16T07:27:56;16.88;;;8.40;;
75218;SDS011;63801;49.414;19.474;2022-10-16T07:29:56;18.10;;;9.32;;
75218;SDS011;63801;49.414;19.474;2022-10-16T07:31:57;7.93;;;5.78;;
75218;SDS011;63801;49.414;19.474;2022-10-16T07:33:58;14.68;;;6.25;;
75218;SDS011;63801;49.414;19.474;2022-10-16T07:35:59;12.32;;;6.40;;
75218;SDS011;63801;49.414;19.474;2022-10-16T07:37:59;11.68;;;6.05;;
75218;SDS011;63801;49.414;19.474;2022-10-16T07:40:00;11.97;;;6.40;;
75218;SDS011;63801;49.414;19.474;2022-10-16T07:42:00;12.70;;;6.43;;
75218;SDS011;63801;49.414;19.474;2022-10-16T07:44:00;12.77;;;6.43;;
75218;SDS011;63801;49.414;19.474;2022-10-16T07:46:01;14.30;;;7.30;;
75218;SDS011;63801;49.414;19.474;2022-10-16T07:48:01;13.48;;;7.13;;
75218;SDS011;63801;49.414;19.474;2022-10-16T07:50:02;10.80;;;7.05;;
75218;SDS011;63801;49.414;19.474;2022-10-16T07:52:03;10.55;;;6.35;;
75218;SDS011;63801;49.414;19.474;2022-10-16T07:54:03;12.65;;;6.13;;
75218;SDS011;63801;49.414;19.474;2022-10-16T07:56:04;12.88;;;6.80;;
75218;SDS011;63801;49.414;19.474;2022-10-16T07:58:07;11.00;;;6.88;;
75218;SDS011;63801;49.414;19.474;2022-10-16T08:00:07;11.07;;;6.72;;
75218;SDS011;63801;49.414;19.474;2022-10-16T08:02:13;10.05;;;6.65;;
75218;SDS011;63801;49.414;19.474;2022-10-16T08:04:13;9.10;;;6.20;;
75218;SDS011;63801;49.414;19.474;2022-10-16T08:06:14;11.70;;;6.93;;
75218;SDS011;63801;49.414;19.474;2022-10-16T08:08:15;11.45;;;6.82;;
75218;SDS011;63801;49.414;19.474;2022-10-16T08:10:18;11.82;;;6.60;;
75218;SDS011;63801;49.414;19.474;2022-10-16T08:12:19;11.35;;;6.90;;
75218;SDS011;63801;49.414;19.474;2022-10-16T08:14:20;11.40;;;6.65;;
75218;SDS011;63801;49.414;19.474;2022-10-16T08:16:20;12.13;;;6.93;;
75218;SDS011;63801;49.414;19.474;2022-10-16T08:18:21;11.57;;;6.57;;
75218;SDS011;63801;49.414;19.474;2022-10-16T08:20:21;14.68;;;6.88;;
75218;SDS011;63801;49.414;19.474;2022-10-16T08:22:22;13.15;;;7.07;;
75218;SDS011;63801;49.414;19.474;2022-10-16T08:24:22;14.90;;;7.40;;
75218;SDS011;63801;49.414;19.474;2022-10-16T08:26:22;12.77;;;7.22;;
75218;SDS011;63801;49.414;19.474;2022-10-16T08:28:23;13.85;;;7.22;;
75218;SDS011;63801;49.414;19.474;2022-10-16T08:30:23;12.63;;;6.85;;
75218;SDS011;63801;49.414;19.474;2022-10-16T08:32:24;11.68;;;7.15;;
75218;SDS011;63801;49.414;19.474;2022-10-16T08:34:24;11.13;;;6.18;;
75218;SDS011;63801;49.414;19.474;2022-10-16T08:36:24;12.52;;;7.75;;
75218;SDS011;63801;49.414;19.474;2022-10-16T08:38:25;12.52;;;7.30;;
75218;SDS011;63801;49.414;19.474;2022-10-16T08:40:26;10.93;;;6.45;;
75218;SDS011;63801;49.414;19.474;2022-10-16T08:42:49;12.45;;;6.78;;
75218;SDS011;63801;49.414;19.474;2022-10-16T08:50:10;11.20;;;6.28;;
75218;SDS011;63801;49.414;19.474;2022-10-16T08:52:12;10.77;;;6.05;;
75218;SDS011;63801;49.414;19.474;2022-10-16T08:54:26;13.15;;;6.63;;
75218;SDS011;63801;49.414;19.474;2022-10-16T08:56:31;12.10;;;6.82;;
75218;SDS011;63801;49.414;19.474;2022-10-16T08:58:33;11.47;;;6.93;;
75218;SDS011;63801;49.414;19.474;2022-10-16T09:00:33;15.15;;;6.50;;
75218;SDS011;63801;49.414;19.474;2022-10-16T09:02:35;13.15;;;6.93;;
75218;SDS011;63801;49.414;19.474;2022-10-16T09:06:52;12.68;;;6.72;;
75218;SDS011;63801;49.414;19.474;2022-10-16T09:09:12;15.52;;;6.90;;
75218;SDS011;63801;49.414;19.474;2022-10-16T09:11:37;13.55;;;7.07;;
75218;SDS011;63801;49.414;19.474;2022-10-16T09:16:07;13.05;;;7.25;;
75218;SDS011;63801;49.414;19.474;2022-10-16T09:20:35;12.10;;;6.97;;
75218;SDS011;63801;49.414;19.474;2022-10-16T09:23:08;12.27;;;6.95;;
75218;SDS011;63801;49.414;19.474;2022-10-16T09:25:12;10.98;;;6.55;;
75218;SDS011;63801;49.414;19.474;2022-10-16T09:27:17;12.75;;;7.00;;
75218;SDS011;63801;49.414;19.474;2022-10-16T09:29:18;12.60;;;7.30;;
75218;SDS011;63801;49.414;19.474;2022-10-16T09:31:20;11.05;;;6.38;;
75218;SDS011;63801;49.414;19.474;2022-10-16T09:33:23;15.95;;;7.25;;
75218;SDS011;63801;49.414;19.474;2022-10-16T09:35:33;12.75;;;7.40;;
75218;SDS011;63801;49.414;19.474;2022-10-16T09:37:37;12.93;;;6.65;;
75218;SDS011;63801;49.414;19.474;2022-10-16T09:39:51;10.35;;;6.90;;
75218;SDS011;63801;49.414;19.474;2022-10-16T09:41:52;12.10;;;6.85;;
75218;SDS011;63801;49.414;19.474;2022-10-16T09:43:55;13.23;;;6.82;;
75218;SDS011;63801;49.414;19.474;2022-10-16T09:48:47;11.52;;;6.50;;
75218;SDS011;63801;49.414;19.474;2022-10-16T09:50:56;11.48;;;5.93;;
75218;SDS011;63801;49.414;19.474;2022-10-16T09:55:15;10.50;;;5.72;;
75218;SDS011;63801;49.414;19.474;2022-10-16T09:57:17;10.45;;;6.03;;
75218;SDS011;63801;49.414;19.474;2022-10-16T09:59:19;12.43;;;6.28;;
75218;SDS011;63801;49.414;19.474;2022-10-16T10:01:21;15.98;;;6.15;;
75218;SDS011;63801;49.414;19.474;2022-10-16T10:03:37;13.68;;;6.47;;
75218;SDS011;63801;49.414;19.474;2022-10-16T10:05:39;14.45;;;7.38;;
75218;SDS011;63801;49.414;19.474;2022-10-16T10:07:42;16.52;;;6.60;;
75218;SDS011;63801;49.414;19.474;2022-10-16T10:09:45;10.02;;;5.60;;
75218;SDS011;63801;49.414;19.474;2022-10-16T10:11:48;17.10;;;6.20;;
75218;SDS011;63801;49.414;19.474;2022-10-16T10:13:50;11.68;;;6.05;;
75218;SDS011;63801;49.414;19.474;2022-10-16T10:15:51;12.45;;;7.15;;
75218;SDS011;63801;49.414;19.474;2022-10-16T10:17:55;13.60;;;7.32;;
75218;SDS011;63801;49.414;19.474;2022-10-16T10:19:58;16.02;;;6.70;;
75218;SDS011;63801;49.414;19.474;2022-10-16T10:22:13;12.13;;;6.88;;
75218;SDS011;63801;49.414;19.474;2022-10-16T10:24:17;15.13;;;6.95;;
75218;SDS011;63801;49.414;19.474;2022-10-16T10:26:20;19.85;;;7.70;;
75218;SDS011;63801;49.414;19.474;2022-10-16T10:28:35;12.27;;;6.93;;
75218;SDS011;63801;49.414;19.474;2022-10-16T10:30:59;14.88;;;8.07;;
75218;SDS011;63801;49.414;19.474;2022-10-16T10:38:16;14.20;;;7.40;;
75218;SDS011;63801;49.414;19.474;2022-10-16T10:40:49;11.98;;;6.70;;
75218;SDS011;63801;49.414;19.474;2022-10-16T10:42:55;14.75;;;7.13;;
75218;SDS011;63801;49.414;19.474;2022-10-16T10:45:24;21.50;;;7.22;;
75218;SDS011;63801;49.414;19.474;2022-10-16T10:51:51;23.63;;;7.00;;
75218;SDS011;63801;49.414;19.474;2022-10-16T10:54:20;18.02;;;7.47;;
75218;SDS011;63801;49.414;19.474;2022-10-16T11:01:08;13.95;;;7.32;;
75218;SDS011;63801;49.414;19.474;2022-10-16T11:06:00;16.15;;;7.20;;
75218;SDS011;63801;49.414;19.474;2022-10-16T11:10:22;19.75;;;7.57;;
75218;SDS011;63801;49.414;19.474;2022-10-16T11:12:46;16.52;;;7.10;;
75218;SDS011;63801;49.414;19.474;2022-10-16T11:17:19;16.20;;;7.10;;
75218;SDS011;63801;49.414;19.474;2022-10-16T11:19:36;12.27;;;7.32;;
75218;SDS011;63801;49.414;19.474;2022-10-16T11:21:54;13.10;;;7.00;;
75218;SDS011;63801;49.414;19.474;2022-10-16T11:24:04;13.20;;;6.80;;
75218;SDS011;63801;49.414;19.474;2022-10-16T11:26:14;15.50;;;6.70;;
75218;SDS011;63801;49.414;19.474;2022-10-16T11:28:38;9.75;;;6.43;;
75218;SDS011;63801;49.414;19.474;2022-10-16T11:30:47;11.50;;;7.20;;
75218;SDS011;63801;49.414;19.474;2022-10-16T11:38:00;12.55;;;7.50;;
75218;SDS011;63801;49.414;19.474;2022-10-16T11:40:09;12.38;;;7.05;;
75218;SDS011;63801;49.414;19.474;2022-10-16T11:42:25;17.30;;;7.35;;
75218;SDS011;63801;49.414;19.474;2022-10-16T11:46:38;10.32;;;7.00;;
75218;SDS011;63801;49.414;19.474;2022-10-16T11:48:46;11.65;;;7.22;;
75218;SDS011;63801;49.414;19.474;2022-10-16T11:50:53;13.35;;;7.20;;
75218;SDS011;63801;49.414;19.474;2022-10-16T11:55:20;11.27;;;6.93;;
75218;SDS011;63801;49.414;19.474;2022-10-16T11:57:38;13.02;;;6.93;;
75218;SDS011;63801;49.414;19.474;2022-10-16T12:08:34;10.80;;;6.72;;
75218;SDS011;63801;49.414;19.474;2022-10-16T12:10:35;13.80;;;7.00;;
75218;SDS011;63801;49.414;19.474;2022-10-16T12:12:38;14.15;;;6.78;;
75218;SDS011;63801;49.414;19.474;2022-10-16T12:14:39;15.00;;;7.57;;
75218;SDS011;63801;49.414;19.474;2022-10-16T12:16:56;14.02;;;7.32;;
75218;SDS011;63801;49.414;19.474;2022-10-16T12:19:09;12.50;;;7.20;;
75218;SDS011;63801;49.414;19.474;2022-10-16T12:21:15;17.02;;;7.20;;
75218;SDS011;63801;49.414;19.474;2022-10-16T12:23:19;15.55;;;7.40;;
75218;SDS011;63801;49.414;19.474;2022-10-16T12:27:31;14.60;;;7.20;;
75218;SDS011;63801;49.414;19.474;2022-10-16T12:31:43;15.85;;;7.63;;
75218;SDS011;63801;49.414;19.474;2022-10-16T12:33:55;12.45;;;7.72;;
75218;SDS011;63801;49.414;19.474;2022-10-16T12:35:59;17.13;;;7.95;;
75218;SDS011;63801;49.414;19.474;2022-10-16T12:38:07;18.70;;;7.53;;
75218;SDS011;63801;49.414;19.474;2022-10-16T12:44:26;12.00;;;7.67;;
75218;SDS011;63801;49.414;19.474;2022-10-16T12:48:35;15.30;;;8.38;;
75218;SDS011;63801;49.414;19.474;2022-10-16T12:50:40;19.80;;;13.40;;
75218;SDS011;63801;49.414;19.474;2022-10-16T12:52:41;19.15;;;9.23;;
75218;SDS011;63801;49.414;19.474;2022-10-16T12:54:44;19.02;;;8.52;;
75218;SDS011;63801;49.414;19.474;2022-10-16T13:01:22;13.40;;;7.93;;
75218;SDS011;63801;49.414;19.474;2022-10-16T13:03:47;12.43;;;8.20;;
75218;SDS011;63801;49.414;19.474;2022-10-16T13:08:31;15.13;;;8.65;;
75218;SDS011;63801;49.414;19.474;2022-10-16T13:10:42;23.02;;;8.70;;
75218;SDS011;63801;49.414;19.474;2022-10-16T13:13:22;13.10;;;8.45;;
75218;SDS011;63801;49.414;19.474;2022-10-16T13:15:33;15.57;;;8.45;;
75218;SDS011;63801;49.414;19.474;2022-10-16T13:26:46;14.20;;;7.90;;
75218;SDS011;63801;49.414;19.474;2022-10-16T13:28:53;14.02;;;7.95;;
75218;SDS011;63801;49.414;19.474;2022-10-16T13:31:00;15.68;;;8.35;;
75218;SDS011;63801;49.414;19.474;2022-10-16T13:33:06;15.15;;;7.53;;
75218;SDS011;63801;49.414;19.474;2022-10-16T13:35:23;13.27;;;8.57;;
75218;SDS011;63801;49.414;19.474;2022-10-16T13:37:28;15.18;;;8.60;;
75218;SDS011;63801;49.414;19.474;2022-10-16T13:39:29;13.57;;;8.30;;
75218;SDS011;63801;49.414;19.474;2022-10-16T13:41:30;19.10;;;9.13;;
75218;SDS011;63801;49.414;19.474;2022-10-16T13:45:36;16.73;;;9.18;;
75218;SDS011;63801;49.414;19.474;2022-10-16T13:47:37;19.30;;;10.35;;
75218;SDS011;63801;49.414;19.474;2022-10-16T13:49:37;18.05;;;9.50;;